Time;durP1;ratioP1;P1;durP2;ratioP2;P2;SDS_P1;SDS_P2;PMS_P1;PMS_P2;Temp;Humidity;BMP_temperature;BMP_pressure;BME280_temperature;BME280_humidity;BME280_pressure;Samples;Min_cycle;Max_cycle;Signal;HPM_P1;HPM_P2
2022/11/10 00:00:53;;;;;;;8.02;2.30;;;;;;;2.28;40.81;100290.94;4856605;28;20074;-63
2022/11/10 00:03:31;;;;;;;5.25;2.55;;;;;;;2.15;41.50;100305.31;4863458;28;20050;-63
2022/11/10 00:06:12;;;;;;;5.90;2.75;;;;;;;2.14;40.31;100325.06;4876424;28;20678;-63
2022/11/10 00:09:16;;;;;;;6.22;2.65;;;;;;;2.19;41.88;100330.31;4889665;28;20074;-64
2022/11/10 00:11:49;;;;;;;4.63;1.98;;;;;;;2.20;41.84;100333.75;4822945;28;20046;-63
2022/11/10 00:17:36;;;;;;;9.68;3.17;;;;;;;2.12;43.18;100331.91;4876649;28;20080;-65
2022/11/10 00:20:15;;;;;;;3.05;2.00;;;;;;;2.09;40.99;100341.28;4879574;28;20473;-63
2022/11/10 00:23:02;;;;;;;12.15;2.35;;;;;;;1.93;42.30;100358.16;4875822;28;20051;-63
2022/11/10 00:25:54;;;;;;;2.67;1.70;;;;;;;1.70;42.54;100374.03;4897897;28;20062;-62
2022/11/10 00:28:35;;;;;;;4.20;1.88;;;;;;;1.37;43.12;100321.78;4863742;28;20054;-62
2022/11/10 00:31:54;;;;;;;4.95;1.92;;;;;;;1.64;43.37;100389.31;4885112;28;20042;-61
2022/11/10 00:34:37;;;;;;;3.60;1.98;;;;;;;1.55;41.93;100384.00;4860476;28;20098;-61
2022/11/10 00:37:21;;;;;;;6.45;1.92;;;;;;;1.59;41.72;100411.53;4899015;28;20044;-61
2022/11/10 00:40:22;;;;;;;3.53;1.80;;;;;;;1.63;41.15;100403.06;4894655;28;25809;-61
2022/11/10 00:43:26;;;;;;;9.23;2.10;;;;;;;1.60;40.93;100392.69;4844817;28;20053;-60
2022/11/10 00:46:15;;;;;;;5.38;1.95;;;;;;;1.40;41.85;100356.19;4889769;28;20051;-62
2022/11/10 00:49:24;;;;;;;2.70;1.83;;;;;;;1.53;41.78;100406.25;4843981;28;20078;-62
2022/11/10 00:52:09;;;;;;;4.22;1.88;;;;;;;1.56;42.29;100408.91;4866884;28;20103;-62
2022/11/10 00:55:03;;;;;;;5.75;2.17;;;;;;;1.61;41.98;100415.03;4904451;28;20352;-62
2022/11/10 00:57:41;;;;;;;4.50;1.73;;;;;;;1.69;42.33;100418.63;4867829;28;20105;-62
2022/11/10 01:00:20;;;;;;;2.65;1.75;;;;;;;1.81;42.64;100424.91;4888120;28;20052;-61
2022/11/10 01:03:01;;;;;;;2.90;1.95;;;;;;;1.81;40.54;100427.47;4878871;28;20055;-61
2022/11/10 01:05:44;;;;;;;5.18;1.80;;;;;;;1.61;40.33;100420.19;4896313;28;20352;-61
2022/11/10 01:08:24;;;;;;;5.57;2.20;;;;;;;1.93;40.43;100432.91;4923898;28;20039;-62
2022/11/10 01:11:15;;;;;;;6.07;2.28;;;;;;;2.38;40.70;100432.09;4886361;28;20033;-62
2022/11/10 01:13:56;;;;;;;3.07;1.90;;;;;;;2.67;39.65;100436.91;4856625;28;20050;-62
2022/11/10 01:16:43;;;;;;;6.82;2.00;;;;;;;2.68;39.68;100431.81;4887139;28;20239;-62
2022/11/10 01:19:29;;;;;;;6.68;1.75;;;;;;;2.49;38.58;100415.09;4912195;28;20041;-61
2022/11/10 01:22:06;;;;;;;4.85;2.03;;;;;;;2.43;39.41;100430.47;4833669;28;20050;-62
2022/11/10 01:24:45;;;;;;;6.35;2.50;;;;;;;2.43;40.38;100434.78;4883308;28;20048;-63
2022/11/10 01:27:27;;;;;;;5.82;1.90;;;;;;;2.49;40.23;100451.22;4899757;28;20550;-62
2022/11/10 01:30:17;;;;;;;6.95;2.22;;;;;;;2.48;40.45;100428.84;4878194;28;20349;-62
2022/11/10 01:32:54;;;;;;;4.75;2.40;;;;;;;2.59;40.23;100437.66;4908651;28;20049;-61
2022/11/10 01:35:35;;;;;;;9.98;2.20;;;;;;;2.59;38.95;100442.81;4861972;28;20116;-63
2022/11/10 01:38:37;;;;;;;11.77;2.55;;;;;;;2.31;38.74;100428.50;4883055;28;20049;-62
2022/11/10 01:44:18;;;;;;;4.00;1.80;;;;;;;2.20;39.76;100452.34;4895990;28;20053;-62
2022/11/10 01:47:11;;;;;;;3.20;1.52;;;;;;;2.23;40.12;100452.41;4900245;28;20049;-62
2022/11/10 01:49:50;;;;;;;10.05;2.00;;;;;;;2.33;39.26;100449.19;4879010;28;20061;-64
2022/11/10 01:55:46;;;;;;;13.07;2.80;;;;;;;2.29;39.85;100457.69;4865399;28;20112;-64
2022/11/10 01:58:26;;;;;;;8.65;2.17;;;;;;;1.75;40.23;100368.97;4845242;28;20129;-63
2022/11/10 02:01:18;;;;;;;4.35;2.13;;;;;;;2.28;40.81;100471.44;4850528;28;20078;-62
2022/11/10 02:06:57;;;;;;;4.72;2.20;;;;;;;2.18;41.59;100451.47;4860426;28;20071;-62
2022/11/10 02:09:35;;;;;;;6.20;1.80;;;;;;;2.22;40.52;100491.91;4886557;28;20218;-62
2022/11/10 02:12:35;;;;;;;4.95;2.08;;;;;;;2.10;40.89;100485.69;4897563;28;20079;-61
2022/11/10 02:15:31;;;;;;;7.18;1.92;;;;;;;2.12;40.75;100491.75;4875283;28;20080;-62
2022/11/10 02:18:15;;;;;;;8.80;2.25;;;;;;;2.12;41.76;100491.75;4897592;28;20057;-63
2022/11/10 02:20:55;;;;;;;7.25;2.28;;;;;;;2.27;42.60;100500.63;4890827;28;20065;-63
2022/11/10 02:26:51;;;;;;;6.70;2.17;;;;;;;2.33;41.13;100500.75;4841900;28;20060;-62
2022/11/10 02:29:39;;;;;;;9.02;1.98;;;;;;;2.37;41.23;100498.28;4864444;28;20546;-63
2022/11/10 02:32:27;;;;;;;7.70;2.33;;;;;;;2.30;41.30;100509.31;4881828;28;20075;-63
2022/11/10 02:37:58;;;;;;;5.28;2.50;;;;;;;2.35;41.71;100525.75;4859746;28;20080;-62
2022/11/10 02:40:49;;;;;;;7.85;2.10;;;;;;;2.25;41.53;100515.22;4868324;28;20053;-62
2022/11/10 02:43:28;;;;;;;5.28;2.00;;;;;;;2.08;41.57;100520.84;4886831;28;20063;-61
2022/11/10 02:46:17;;;;;;;4.15;1.83;;;;;;;1.94;42.61;100527.41;4905871;28;20109;-62
2022/11/10 02:49:00;;;;;;;5.82;2.00;;;;;;;1.91;42.32;100517.03;4855961;28;20339;-62
2022/11/10 02:51:41;;;;;;;6.88;2.50;;;;;;;2.00;42.92;100517.25;4849181;28;20050;-62
2022/11/10 02:54:26;;;;;;;11.85;2.50;;;;;;;2.03;43.89;100517.31;4861417;28;20102;-62
2022/11/10 02:57:20;;;;;;;6.20;2.30;;;;;;;2.00;43.67;100527.56;4922890;28;20061;-63
2022/11/10 03:00:13;;;;;;;8.55;2.78;;;;;;;2.05;43.83;100525.94;4892352;28;20048;-62
2022/11/10 03:02:50;;;;;;;4.07;2.30;;;;;;;1.99;43.76;100530.94;4919716;28;20074;-62
2022/11/10 03:05:33;;;;;;;11.52;2.60;;;;;;;1.64;43.81;100482.06;4892008;28;20575;-61
2022/11/10 03:08:16;;;;;;;7.75;2.85;;;;;;;1.93;44.86;100546.28;4893467;28;20061;-62
2022/11/10 03:10:58;;;;;;;9.20;2.28;;;;;;;1.88;44.56;100546.16;4865698;28;20305;-62
2022/11/10 03:13:30;;;;;;;;;;;;;;;1.91;44.47;100543.66;4866286;28;20056;-62
2022/11/10 03:16:31;;;;;;;10.75;2.25;;;;;;;1.88;45.00;100537.59;4873088;28;19924;-62
2022/11/10 03:19:34;;;;;;;5.35;2.03;;;;;;;1.89;44.64;100540.16;4887996;28;20044;-62
2022/11/10 03:22:43;;;;;;;7.55;2.20;;;;;;;1.96;45.13;100551.50;4871629;28;20056;-62
2022/11/10 03:25:40;;;;;;;11.48;2.55;;;;;;;2.04;45.21;100544.81;4882402;28;20061;-63
2022/11/10 03:28:36;;;;;;;10.68;2.55;;;;;;;2.20;45.68;100540.00;4883831;28;20044;-63
2022/11/10 03:31:28;;;;;;;7.20;2.40;;;;;;;2.35;46.04;100554.09;4870844;28;20070;-63
2022/11/10 03:34:24;;;;;;;6.22;2.15;;;;;;;2.26;44.07;100545.28;4840496;28;20073;-63
2022/11/10 03:37:18;;;;;;;6.55;1.80;;;;;;;2.02;44.28;100556.81;4905234;28;20064;-62
2022/11/10 03:40:53;;;;;;;14.43;2.35;;;;;;;2.04;45.35;100559.41;4903601;28;20077;-62
2022/11/10 03:47:32;;;;;;;6.95;1.50;;;;;;;1.93;45.27;100561.75;4900479;28;20131;-61
2022/11/10 03:50:38;;;;;;;6.95;4.28;;;;;;;1.99;45.90;100567.03;4887399;28;20049;-62
2022/11/10 03:53:49;;;;;;;8.38;2.22;;;;;;;2.08;46.58;100572.41;4898728;28;20075;-63
2022/11/10 04:00:22;;;;;;;6.68;2.50;;;;;;;1.80;49.34;100570.91;4877517;28;20106;-64
2022/11/10 04:03:21;;;;;;;3.95;2.50;;;;;;;1.80;49.64;100585.47;4906145;28;20037;-64
2022/11/10 04:09:06;;;;;;;7.75;2.00;;;;;;;1.60;50.97;100583.28;4868505;28;20125;-62
2022/11/10 04:18:48;;;;;;;6.13;1.60;;;;;;;1.88;52.19;100584.81;4886546;28;20053;-64
2022/11/10 04:21:57;;;;;;;4.10;1.85;;;;;;;2.11;51.58;100593.09;4871234;28;20103;-65
2022/11/10 04:24:53;;;;;;;6.57;1.90;;;;;;;2.33;51.84;100593.59;4870264;28;20052;-63
2022/11/10 04:30:53;;;;;;;5.38;1.67;;;;;;;2.54;51.83;100604.34;4897029;28;20114;-64
2022/11/10 04:34:03;;;;;;;7.22;1.70;;;;;;;2.70;51.86;100610.75;4879189;28;20091;-65
2022/11/10 04:36:51;;;;;;;6.35;2.17;;;;;;;2.87;51.35;100605.03;4900936;28;20119;-65
2022/11/10 04:39:47;;;;;;;9.88;1.85;;;;;;;3.11;51.17;100617.56;4815281;28;20058;-64
2022/11/10 04:46:02;;;;;;;4.68;1.83;;;;;;;3.61;50.59;100622.81;4838953;28;20153;-64
2022/11/10 04:49:02;;;;;;;;;;;;;;;3.87;49.49;100625.84;4822495;28;20046;-64
2022/11/10 04:52:02;;;;;;;5.78;1.90;;;;;;;3.74;47.89;100631.63;4844327;28;19917;-64
2022/11/10 04:55:14;;;;;;;7.35;2.30;;;;;;;3.42;48.26;100634.50;4831576;28;20047;-64
2022/11/10 04:58:09;;;;;;;3.88;1.58;;;;;;;3.12;47.99;100645.13;4784493;28;20050;-64
2022/11/10 05:04:11;;;;;;;4.93;1.50;;;;;;;2.27;51.38;100660.47;4857100;28;20105;-63
2022/11/10 05:07:17;;;;;;;5.72;1.60;;;;;;;2.09;53.02;100641.16;4800089;28;20062;-64
2022/11/10 05:10:11;;;;;;;14.45;1.85;;;;;;;1.94;53.45;100651.09;4831229;28;20062;-64
2022/11/10 05:13:03;;;;;;;9.13;1.45;;;;;;;2.09;52.81;100672.09;4854019;28;20070;-64
2022/11/10 05:15:58;;;;;;;6.95;1.33;;;;;;;2.05;53.70;100670.28;4818512;28;20034;-64
2022/11/10 05:19:15;;;;;;;10.05;1.40;;;;;;;1.94;53.46;100682.88;4830346;28;20060;-64
2022/11/10 05:22:23;;;;;;;11.02;1.55;;;;;;;1.95;54.10;100673.47;4825354;28;20086;-64
2022/11/10 05:25:19;;;;;;;3.88;1.80;;;;;;;1.84;55.03;100690.34;4907008;28;20074;-64
2022/11/10 05:28:16;;;;;;;8.30;1.50;;;;;;;1.68;54.50;100694.25;4874281;28;20057;-64
2022/11/10 05:31:26;;;;;;;5.80;1.63;;;;;;;1.79;55.89;100702.25;4892781;28;20314;-64
2022/11/10 05:34:37;;;;;;;1.25;1.10;;;;;;;1.87;55.17;100705.88;4867528;28;20371;-64
2022/11/10 05:49:51;;;;;;;9.57;1.77;;;;;;;1.98;55.56;100730.25;4900838;28;20048;-64
2022/11/10 05:53:02;;;;;;;11.30;1.42;;;;;;;1.88;55.62;100717.97;4906872;28;20042;-64
2022/11/10 05:56:14;;;;;;;6.72;1.48;;;;;;;1.70;54.56;100744.13;4893023;28;20048;-64
2022/11/10 05:59:10;;;;;;;11.32;1.88;;;;;;;1.31;56.01;100694.94;4835976;28;20061;-65
2022/11/10 06:02:12;;;;;;;9.65;1.90;;;;;;;1.55;55.95;100739.41;4867702;28;20140;-63
2022/11/10 06:05:00;;;;;;;5.93;1.55;;;;;;;1.49;56.01;100744.38;4871296;28;20364;-64
2022/11/10 06:07:37;;;;;;;10.40;1.55;;;;;;;1.36;55.08;100732.84;4890333;28;20053;-63
2022/11/10 06:10:16;;;;;;;10.05;1.98;;;;;;;1.41;54.97;100746.75;4856689;28;20187;-62
2022/11/10 06:13:04;;;;;;;5.90;1.88;;;;;;;1.39;53.87;100755.25;4835748;28;20095;-63
2022/11/10 06:15:49;;;;;;;7.00;1.50;;;;;;;1.31;54.07;100761.88;4885038;28;20291;-64
2022/11/10 06:18:35;;;;;;;11.00;1.92;;;;;;;1.30;54.92;100763.59;4890472;28;20058;-64
2022/11/10 06:21:19;;;;;;;19.92;1.90;;;;;;;1.22;55.65;100759.91;4873334;28;20054;-63
2022/11/10 06:24:16;;;;;;;18.42;1.92;;;;;;;1.08;56.04;100756.94;4875870;28;20052;-64
2022/11/10 06:26:56;;;;;;;24.27;2.30;;;;;;;0.93;56.10;100771.91;4906458;28;20437;-64
2022/11/10 06:32:34;;;;;;;29.35;3.05;;;;;;;0.81;56.85;100791.28;4887718;28;20061;-64
2022/11/10 06:35:22;;;;;;;17.48;2.53;;;;;;;0.76;56.85;100790.25;4857241;28;20050;-64
2022/11/10 06:38:18;;;;;;;19.92;1.60;;;;;;;0.62;57.29;100792.41;4859729;28;20060;-64
2022/11/10 06:41:05;;;;;;;18.02;1.90;;;;;;;0.62;57.56;100806.94;4890774;28;20395;-64
2022/11/10 06:43:54;;;;;;;29.38;2.17;;;;;;;0.52;57.60;100815.19;4866026;28;20044;-63
2022/11/10 06:49:25;;;;;;;16.95;1.98;;;;;;;0.33;58.14;100814.56;4899372;28;20142;-63
2022/11/10 06:52:12;;;;;;;17.67;2.65;;;;;;;0.34;59.17;100816.31;4885944;28;20049;-63
2022/11/10 06:54:58;;;;;;;18.75;3.25;;;;;;;0.39;59.15;100830.19;4865326;28;20041;-63
2022/11/10 06:57:44;;;;;;;13.93;2.45;;;;;;;0.30;59.65;100835.03;4869417;28;20126;-63
2022/11/10 07:00:28;;;;;;;25.45;2.50;;;;;;;0.12;60.04;100849.81;4899480;28;20098;-62
2022/11/10 07:03:25;;;;;;;15.80;2.10;;;;;;;-0.65;60.79;100764.84;4865461;28;20053;-63
2022/11/10 07:06:16;;;;;;;2.63;1.25;;;;;;;-0.28;61.93;100843.22;4893624;28;20048;-63
2022/11/10 07:09:26;;;;;;;18.10;1.88;;;;;;;-0.24;62.94;100865.66;4862885;28;20099;-62
2022/11/10 07:12:07;;;;;;;10.32;1.70;;;;;;;-0.38;63.88;100851.41;4901647;28;20061;-63
2022/11/10 07:14:48;;;;;;;9.40;1.83;;;;;;;-0.50;64.38;100872.34;4889952;28;20036;-63
2022/11/10 07:17:31;;;;;;;9.50;1.85;;;;;;;-0.58;65.44;100890.03;4851415;28;20101;-65
2022/11/10 07:20:29;;;;;;;3.97;1.63;;;;;;;-0.67;65.53;100892.28;4892839;28;20113;-63
2022/11/10 07:23:24;;;;;;;40.70;3.08;;;;;;;-0.77;66.89;100903.00;4885197;28;20060;-64
2022/11/10 07:26:12;;;;;;;10.15;1.67;;;;;;;-0.89;67.20;100899.09;4883009;28;20051;-64
2022/11/10 07:29:12;;;;;;;5.68;1.75;;;;;;;-0.90;67.49;100912.75;4888643;28;20302;-65
2022/11/10 07:34:52;;;;;;;5.57;1.90;;;;;;;-1.01;68.05;100903.75;4876701;28;20052;-64
2022/11/10 07:37:50;;;;;;;8.52;2.10;;;;;;;-0.97;67.94;100904.75;4885046;28;20037;-64
2022/11/10 07:40:28;;;;;;;12.48;2.08;;;;;;;-0.82;67.94;100894.19;4825214;28;20169;-64
2022/11/10 07:43:27;;;;;;;4.93;1.90;;;;;;;-0.72;67.27;100904.03;4921742;28;20520;-64
2022/11/10 07:46:15;;;;;;;5.03;1.70;;;;;;;-0.59;67.35;100913.97;4883275;28;20050;-65
2022/11/10 07:48:54;;;;;;;7.18;1.50;;;;;;;-0.52;67.24;100928.78;4884862;28;20341;-64
2022/11/10 07:52:02;;;;;;;8.35;2.00;;;;;;;-0.59;66.65;100939.63;4861595;28;20053;-63
2022/11/10 07:54:40;;;;;;;9.55;4.32;;;;;;;-0.41;67.55;100943.75;4875383;28;20420;-64
2022/11/10 07:57:25;;;;;;;10.50;3.20;;;;;;;-0.46;67.47;100946.13;4887070;28;20057;-64
2022/11/10 08:00:17;;;;;;;11.57;4.07;;;;;;;-0.58;67.59;100967.03;4877805;28;20057;-63
2022/11/10 08:03:16;;;;;;;10.50;4.20;;;;;;;-0.72;67.57;100952.81;4827139;28;20052;-65
2022/11/10 08:06:00;;;;;;;6.17;3.07;;;;;;;-0.72;68.17;100963.94;4803991;28;20079;-65
2022/11/10 08:08:43;;;;;;;12.88;3.75;;;;;;;-0.78;68.04;100962.81;4789767;29;20289;-65
2022/11/10 08:11:51;;;;;;;9.18;4.03;;;;;;;-0.76;68.78;100971.44;4767692;28;20063;-63
2022/11/10 08:14:46;;;;;;;8.68;3.90;;;;;;;-0.63;68.96;100970.25;4784967;28;20066;-64
2022/11/10 08:17:39;;;;;;;14.43;4.85;;;;;;;-0.62;68.78;100975.47;4773109;28;20052;-64
2022/11/10 08:20:23;;;;;;;11.75;3.70;;;;;;;-0.53;68.98;100973.25;4744146;29;20062;-64
2022/11/10 08:23:09;;;;;;;9.32;3.78;;;;;;;-0.74;68.93;100936.47;4779594;28;20207;-62
2022/11/10 08:25:56;;;;;;;12.93;4.20;;;;;;;-0.56;68.74;100980.81;4778106;28;20066;-63
2022/11/10 08:28:59;;;;;;;;;;;;;;;;;;;;;
2022/11/10 08:31:40;;;;;;;14.55;3.90;;;;;;;-0.58;69.50;100982.44;4765595;29;20059;-64
2022/11/10 08:35:02;;;;;;;15.60;3.70;;;;;;;-0.70;69.16;100982.84;4805293;28;20044;-64
2022/11/10 08:37:52;;;;;;;13.65;5.28;;;;;;;-0.59;68.99;100990.97;4772983;28;20044;-64
2022/11/10 08:43:37;;;;;;;19.52;9.32;;;;;;;-0.55;68.54;100997.09;4844893;28;20064;-64
2022/11/10 08:49:11;;;;;;;26.80;9.70;;;;;;;-0.64;68.54;100987.34;4902508;28;20055;-64
2022/11/10 08:51:56;;;;;;;26.15;10.35;;;;;;;-0.58;68.84;101002.97;4886833;28;20691;-64
2022/11/10 08:54:52;;;;;;;21.58;6.47;;;;;;;-0.69;68.70;101007.69;4885582;28;20058;-65
2022/11/10 08:57:38;;;;;;;19.02;5.47;;;;;;;-0.73;69.40;101002.34;4876119;28;20055;-64
2022/11/10 09:00:24;;;;;;;15.05;4.03;;;;;;;-1.14;69.25;100948.53;4878037;28;20059;-63
2022/11/10 09:03:20;;;;;;;8.43;3.80;;;;;;;-0.91;69.17;101023.88;4890870;28;20057;-64
2022/11/10 09:06:38;;;;;;;10.50;3.47;;;;;;;-0.99;69.24;101025.25;4887928;28;20055;-65
2022/11/10 09:09:24;;;;;;;13.50;4.20;;;;;;;-0.95;69.77;101027.16;4897262;28;20053;-63
2022/11/10 09:12:11;;;;;;;6.10;2.75;;;;;;;-0.99;69.56;101029.50;4880819;28;20322;-64
2022/11/10 09:14:54;;;;;;;28.30;11.13;;;;;;;-1.15;69.56;101028.84;4876271;28;20108;-62
2022/11/10 09:18:13;;;;;;;26.17;9.95;;;;;;;-1.32;69.77;101035.81;4888292;28;20121;-64
2022/11/10 09:21:16;;;;;;;22.48;9.85;;;;;;;-1.33;70.47;101041.72;4908263;28;20120;-65
2022/11/10 09:24:07;;;;;;;13.25;6.07;;;;;;;-1.38;70.29;101040.66;4837824;28;20052;-63
2022/11/10 09:27:03;;;;;;;19.17;7.40;;;;;;;-1.41;70.51;101039.66;4827810;28;20634;-64
2022/11/10 09:30:14;;;;;;;14.43;6.90;;;;;;;-1.50;70.52;101040.09;4845527;28;20111;-66
2022/11/10 09:33:00;;;;;;;18.30;8.05;;;;;;;-1.50;70.18;101050.34;4912927;28;20100;-65
2022/11/10 09:35:50;;;;;;;23.63;7.32;;;;;;;-1.67;69.78;101048.72;4877044;28;20056;-63
2022/11/10 09:42:30;;;;;;;28.83;11.40;;;;;;;-1.85;69.60;101057.31;4881828;28;20077;-63
2022/11/10 09:45:25;;;;;;;68.93;23.77;;;;;;;-2.04;70.15;101055.59;4906757;28;20055;-64
2022/11/10 09:48:10;;;;;;;62.55;22.13;;;;;;;-2.20;70.60;101051.44;4863044;28;20053;-63
2022/11/10 09:50:54;;;;;;;44.28;19.00;;;;;;;-2.33;70.86;101056.75;4877688;28;20049;-65
2022/11/10 09:53:38;;;;;;;34.58;15.10;;;;;;;-2.48;71.47;101056.00;4863613;28;20055;-63
2022/11/10 09:56:25;;;;;;;26.77;12.40;;;;;;;-2.57;71.71;101065.78;4877807;28;20103;-65
2022/11/10 09:59:09;;;;;;;24.65;12.93;;;;;;;-2.76;72.09;101054.66;4887575;28;20048;-63
2022/11/10 10:01:55;;;;;;;30.10;12.10;;;;;;;-2.77;72.27;101052.00;4883340;28;20073;-62
2022/11/10 10:05:02;;;;;;;45.60;21.05;;;;;;;-2.66;72.48;101061.97;4902663;28;20054;-64
2022/11/10 10:07:48;;;;;;;22.20;11.02;;;;;;;-2.65;72.59;101076.50;4863475;28;20037;-62
2022/11/10 10:10:39;;;;;;;10.13;5.88;;;;;;;-2.63;72.58;101082.59;4938819;28;20054;-65
2022/11/10 10:13:41;;;;;;;10.20;4.80;;;;;;;-3.24;72.98;100977.25;4891378;28;20483;-63
2022/11/10 10:16:24;;;;;;;8.30;3.53;;;;;;;-2.67;72.97;101073.03;4878599;28;20108;-64
2022/11/10 10:19:30;;;;;;;5.78;3.28;;;;;;;-2.87;72.84;101046.44;4878758;28;20049;-64
2022/11/10 10:22:28;;;;;;;7.90;2.80;;;;;;;-2.69;73.58;101097.66;4897900;28;20074;-64
2022/11/10 10:25:15;;;;;;;4.70;2.42;;;;;;;-2.77;73.44;101098.97;4894762;28;20056;-63
2022/11/10 10:31:25;;;;;;;;;;;;;;;;;;;;;
2022/11/10 10:34:08;;;;;;;10.82;4.22;;;;;;;-2.61;73.00;101070.75;4841025;28;20083;-64
2022/11/10 10:36:56;;;;;;;23.10;8.02;;;;;;;-2.52;72.86;101080.59;4892007;28;20038;-63
2022/11/10 10:40:08;;;;;;;33.30;10.85;;;;;;;-2.38;73.00;101094.06;4845623;28;20099;-64
2022/11/10 10:42:59;;;;;;;71.82;23.40;;;;;;;-2.66;72.92;101054.31;4847898;28;20045;-64
2022/11/10 10:45:41;;;;;;;57.88;17.80;;;;;;;-2.38;72.49;101110.28;4910153;28;20052;-65
2022/11/10 10:48:41;;;;;;;41.65;11.52;;;;;;;-2.42;72.41;101112.59;4878400;28;20075;-64
2022/11/10 10:52:06;;;;;;;11.60;4.78;;;;;;;-2.52;72.47;101115.50;4822496;28;20418;-66
2022/11/10 10:54:42;;;;;;;5.03;2.97;;;;;;;-2.46;72.51;101123.50;4810488;28;20054;-63
2022/11/10 10:57:42;;;;;;;5.97;3.03;;;;;;;-2.66;72.47;101102.91;4829494;28;20070;-62
2022/11/10 11:00:33;;;;;;;5.68;2.95;;;;;;;-2.61;72.35;101142.41;4793965;28;20434;-63
2022/11/10 11:03:25;;;;;;;6.90;4.25;;;;;;;-2.65;72.85;101122.56;4782124;28;20082;-63
2022/11/10 11:06:27;;;;;;;6.88;3.05;;;;;;;-2.56;73.36;101134.09;4799435;28;20150;-64
2022/11/10 11:09:27;;;;;;;4.80;2.73;;;;;;;-2.84;73.22;101102.00;4790432;28;20058;-63
2022/11/10 11:12:07;;;;;;;10.98;4.38;;;;;;;-2.69;72.94;101138.59;4817971;28;20528;-64
2022/11/10 11:14:45;;;;;;;16.77;5.28;;;;;;;-2.71;73.36;101141.88;4793988;28;20076;-64
2022/11/10 11:17:32;;;;;;;15.13;5.20;;;;;;;-3.14;73.08;101101.28;4806100;28;20051;-64
2022/11/10 11:20:18;;;;;;;10.95;4.28;;;;;;;-3.03;73.80;101152.16;4826549;28;20043;-62
2022/11/10 11:23:11;;;;;;;17.33;6.13;;;;;;;-2.81;74.60;101155.84;4803395;28;20074;-63
2022/11/10 11:25:54;;;;;;;30.95;10.27;;;;;;;-3.04;74.25;101132.53;4819499;28;20054;-62
2022/11/10 11:28:53;;;;;;;46.85;13.43;;;;;;;-2.89;74.68;101154.59;4843964;28;20084;-63
2022/11/10 11:31:40;;;;;;;30.65;8.75;;;;;;;-3.04;74.58;101168.31;4899539;28;20059;-63
2022/11/10 11:34:26;;;;;;;21.40;7.57;;;;;;;-3.47;74.77;101097.03;4893494;28;20048;-64
2022/11/10 11:37:22;;;;;;;38.53;14.25;;;;;;;-3.03;75.48;101162.41;4870178;28;20053;-63
2022/11/10 11:40:22;;;;;;;63.42;24.63;;;;;;;-3.05;75.11;101158.88;4905427;28;20092;-63
2022/11/10 11:43:15;;;;;;;31.00;12.48;;;;;;;-2.99;75.79;101152.34;4854480;28;20056;-63
2022/11/10 11:46:18;;;;;;;22.48;10.43;;;;;;;-2.88;75.54;101171.69;4862682;28;20046;-64
2022/11/10 11:49:36;;;;;;;30.15;13.57;;;;;;;-2.87;75.27;101158.97;4852014;28;20054;-63
2022/11/10 11:52:30;;;;;;;31.00;12.20;;;;;;;-2.73;75.60;101167.34;4867616;28;20058;-64
2022/11/10 11:55:41;;;;;;;25.17;12.10;;;;;;;-2.62;75.73;101160.25;4863173;28;20062;-63
2022/11/10 11:58:42;;;;;;;18.35;8.05;;;;;;;-3.17;75.81;101071.34;4878384;28;20120;-64
2022/11/10 12:01:49;;;;;;;12.60;6.88;;;;;;;-2.69;75.62;101158.19;4893761;28;20052;-63
2022/11/10 12:04:50;;;;;;;8.65;4.22;;;;;;;-2.84;75.50;101169.38;4888703;28;20045;-63
2022/11/10 12:07:49;;;;;;;6.82;3.33;;;;;;;-2.85;75.82;101176.94;4915740;28;20121;-63
2022/11/10 12:10:47;;;;;;;7.03;2.65;;;;;;;-2.84;75.83;101173.63;4891951;28;20054;-64
2022/11/10 12:16:32;;;;;;;9.30;3.17;;;;;;;-2.87;76.32;101179.44;4860076;28;20109;-63
2022/11/10 12:22:37;;;;;;;3.85;2.20;;;;;;;-2.86;76.20;101181.19;4873227;28;20118;-64
2022/11/10 12:25:32;;;;;;;5.38;2.22;;;;;;;-3.67;75.99;101074.63;4919465;28;20075;-63
2022/11/10 12:28:22;;;;;;;5.65;2.60;;;;;;;-3.07;76.31;101170.72;4882465;28;20170;-63
2022/11/10 12:31:03;;;;;;;4.25;2.40;;;;;;;-3.03;76.35;101203.31;4895136;28;20045;-63
2022/11/10 12:33:46;;;;;;;5.90;2.20;;;;;;;-3.09;76.55;101197.00;4862845;28;20334;-62
2022/11/10 12:36:49;;;;;;;5.13;2.55;;;;;;;-3.12;76.67;101205.41;4885599;28;20135;-62
2022/11/10 12:39:46;;;;;;;5.88;2.45;;;;;;;-2.91;77.17;101212.44;4886629;28;20041;-63
2022/11/10 12:42:32;;;;;;;12.43;5.03;;;;;;;-3.08;76.51;101225.19;4862031;28;20061;-63
2022/11/10 12:45:25;;;;;;;13.40;6.07;;;;;;;-3.26;76.52;101206.31;4852856;28;20058;-63
2022/11/10 12:48:33;;;;;;;23.13;10.25;;;;;;;-3.20;76.34;101239.88;4877868;28;20046;-63
2022/11/10 12:51:35;;;;;;;18.73;9.45;;;;;;;-3.50;76.27;101229.72;4839860;28;20100;-63
2022/11/10 12:57:18;;;;;;;21.25;5.47;;;;;;;-3.36;76.90;101244.94;4859744;28;20056;-64
2022/11/10 13:00:28;;;;;;;10.15;3.50;;;;;;;-3.35;77.21;101229.69;4904328;28;20061;-64
2022/11/10 13:03:56;;;;;;;4.53;2.70;;;;;;;-3.36;77.05;101252.63;4886862;28;20115;-64
2022/11/10 13:06:35;;;;;;;77.40;25.35;;;;;;;-3.68;77.16;101236.34;4897672;28;20124;-63
2022/11/10 13:09:37;;;;;;;26.58;11.10;;;;;;;-3.64;77.69;101266.41;4903646;28;20590;-63
2022/11/10 13:12:39;;;;;;;32.78;12.63;;;;;;;-3.63;78.30;101263.03;4891129;28;20246;-63
2022/11/10 13:15:49;;;;;;;30.52;13.77;;;;;;;-3.59;78.16;101259.88;4875097;28;20049;-63
2022/11/10 13:19:17;;;;;;;9.80;5.15;;;;;;;-3.64;77.88;101266.41;4830653;28;20151;-64
2022/11/10 13:22:39;;;;;;;6.18;3.80;;;;;;;-3.73;78.11;101250.53;4840140;28;20066;-62
2022/11/10 13:26:00;;;;;;;8.15;4.15;;;;;;;-3.85;78.45;101260.06;4831250;28;20054;-62
2022/11/10 13:29:17;;;;;;;6.38;4.53;;;;;;;-3.87;79.07;101259.06;4839512;28;20122;-62
2022/11/10 13:35:59;;;;;;;8.13;2.13;;;;;;;-3.69;79.32;101252.50;4823867;28;20316;-62
2022/11/10 13:41:50;;;;;;;11.45;4.97;;;;;;;-3.60;78.77;101263.19;4786481;28;20131;-62
2022/11/10 13:44:38;;;;;;;8.60;4.10;;;;;;;-3.62;78.57;101264.81;4822950;28;20448;-64
2022/11/10 13:47:52;;;;;;;18.40;7.10;;;;;;;-3.62;78.93;101259.72;4787444;28;20055;-63
2022/11/10 13:50:50;;;;;;;8.75;4.25;;;;;;;-3.49;79.53;101257.03;4818231;28;20052;-64
2022/11/10 13:53:42;;;;;;;8.07;2.80;;;;;;;-3.61;79.61;101217.16;4826754;28;20198;-63
2022/11/10 13:56:52;;;;;;;12.20;6.97;;;;;;;-3.42;79.10;101267.59;4826205;28;20122;-63
2022/11/10 13:59:43;;;;;;;13.52;5.82;;;;;;;-3.59;79.40;101239.44;4877984;28;20077;-65
2022/11/10 14:02:53;;;;;;;14.00;6.47;;;;;;;-3.50;79.33;101260.38;4880301;28;20103;-63
2022/11/10 14:06:35;;;;;;;43.85;10.48;;;;;;;-3.33;79.28;101273.22;4898307;28;20049;-63
2022/11/10 14:09:23;;;;;;;70.07;18.88;;;;;;;-3.30;79.35;101269.16;4837214;28;20069;-64
2022/11/10 14:12:29;;;;;;;41.38;11.73;;;;;;;-3.36;79.01;101247.50;4885682;28;20144;-66
2022/11/10 14:15:44;;;;;;;82.47;23.42;;;;;;;-3.22;79.02;101272.16;4866941;28;20067;-63
2022/11/10 14:18:32;;;;;;;106.68;30.73;;;;;;;-3.17;79.30;101265.63;4836484;28;20050;-64
2022/11/10 14:21:44;;;;;;;94.95;28.25;;;;;;;-3.18;79.21;101274.06;4837407;28;20117;-63
2022/11/10 14:24:37;;;;;;;56.47;17.05;;;;;;;-3.20;79.23;101255.19;4828403;28;20089;-63
2022/11/10 14:27:32;;;;;;;61.55;18.60;;;;;;;-3.05;78.75;101276.50;4850576;28;20037;-63
2022/11/10 14:30:27;;;;;;;29.35;11.32;;;;;;;-3.07;78.50;101269.53;4834245;28;20251;-63
2022/11/10 14:33:15;;;;;;;61.53;22.67;;;;;;;-3.05;78.66;101271.38;4867673;28;20447;-63
2022/11/10 14:36:08;;;;;;;42.67;16.67;;;;;;;-3.01;78.74;101269.00;4863383;28;20474;-64
2022/11/10 14:41:57;;;;;;;18.60;6.97;;;;;;;-2.69;78.73;101299.75;4833954;28;20252;-64
2022/11/10 14:44:53;;;;;;;13.48;5.45;;;;;;;-2.77;78.51;101283.13;4871385;28;20045;-64
2022/11/10 14:47:37;;;;;;;22.73;7.32;;;;;;;-2.78;77.85;101286.47;4886719;28;20046;-66
2022/11/10 14:50:33;;;;;;;13.63;5.15;;;;;;;-2.85;77.94;101289.47;4896498;28;20101;-64
2022/11/10 14:53:28;;;;;;;8.40;3.80;;;;;;;-2.88;77.95;101279.09;4865129;28;20084;-65
2022/11/10 14:56:14;;;;;;;7.55;3.70;;;;;;;-2.92;77.58;101289.94;4791184;28;21228;-63
2022/11/10 14:58:54;;;;;;;6.43;3.35;;;;;;;-3.11;77.38;101291.50;4837335;28;20323;-64
2022/11/10 15:01:41;;;;;;;6.72;3.42;;;;;;;-3.13;77.02;101298.22;4847343;28;20053;-64
2022/11/10 15:04:36;;;;;;;8.57;4.63;;;;;;;-3.21;77.20;101304.59;4833574;28;20113;-63